createdAt,value
2019-06-07T00:02:02.351Z,47.25
2019-06-07T00:04:33.960Z,37.48
2019-06-07T00:07:04.336Z,47.40
2019-06-07T00:09:34.930Z,36.28
2019-06-07T00:12:09.076Z,38.55
2019-06-07T00:14:37.902Z,41.05
2019-06-07T00:17:10.501Z,42.33
2019-06-07T00:19:40.577Z,40.80
2019-06-07T00:22:23.650Z,38.58
2019-06-07T00:24:44.732Z,40.60
2019-06-07T00:27:15.214Z,39.78
2019-06-07T00:29:46.126Z,42.05
2019-06-07T00:32:20.031Z,47.27
2019-06-07T00:34:48.792Z,44.83
2019-06-07T00:37:20.710Z,39.03
2019-06-07T00:40:12.645Z,37.20
2019-06-07T00:42:24.088Z,42.38
2019-06-07T00:44:55.148Z,37.90
2019-06-07T00:47:28.471Z,45.48
2019-06-07T00:49:59.212Z,44.75
2019-06-07T00:55:01.668Z,40.28
2019-06-07T00:57:31.998Z,42.73
2019-06-07T01:00:04.013Z,38.75
2019-06-07T01:02:34.329Z,43.60
2019-06-07T01:05:05.113Z,40.52
2019-06-07T01:07:35.414Z,43.90
2019-06-07T01:10:10.204Z,42.80
2019-06-07T01:12:40.498Z,42.67
2019-06-07T01:15:11.412Z,43.60
2019-06-07T01:18:11.894Z,43.92
2019-06-07T01:20:16.547Z,46.92
2019-06-07T01:22:46.804Z,50.08
2019-06-07T01:25:18.361Z,41.68
2019-06-07T01:27:49.067Z,45.80
2019-06-07T01:30:24.249Z,46.37
2019-06-07T01:32:52.742Z,42.85
2019-06-07T01:35:23.896Z,45.85
2019-06-07T01:37:57.371Z,43.45
2019-06-07T01:40:32.402Z,45.83
2019-06-07T01:42:59.983Z,42.67
2019-06-07T01:45:31.176Z,50.45
2019-06-07T01:48:01.584Z,44.20
2019-06-07T01:50:32.327Z,40.92
2019-06-07T01:53:02.685Z,39.40
2019-06-07T01:55:33.108Z,44.88
2019-06-07T01:58:03.887Z,38.85
2019-06-07T02:00:34.308Z,41.10
2019-06-07T02:03:04.793Z,44.58
2019-06-07T02:05:35.209Z,42.78
2019-06-07T02:08:05.552Z,43.20
2019-06-07T02:10:35.868Z,42.50
2019-06-07T02:13:06.259Z,48.58
2019-06-07T02:15:36.974Z,45.33
2019-06-07T02:18:07.292Z,46.15
2019-06-07T02:20:37.964Z,43.87
2019-06-07T02:23:08.301Z,46.75
2019-06-07T02:25:49.577Z,47.48
2019-06-07T02:28:27.670Z,43.90
2019-06-07T02:30:53.257Z,46.28
2019-06-07T02:33:14.636Z,41.13
2019-06-07T02:35:45.267Z,42.27
2019-06-07T02:38:15.878Z,49.65
2019-06-07T02:40:46.656Z,42.83
2019-06-07T02:43:17.429Z,45.50
2019-06-07T02:45:47.990Z,38.25
2019-06-07T02:48:18.383Z,40.78
2019-06-07T02:50:49.527Z,37.00
2019-06-07T02:53:21.068Z,40.12
2019-06-07T02:56:35.372Z,38.23
2019-06-07T02:58:26.012Z,35.17
2019-06-07T03:01:07.511Z,37.88
2019-06-07T03:03:30.430Z,33.48
2019-06-07T03:06:02.868Z,34.73
2019-06-07T03:08:36.592Z,38.13
2019-06-07T03:11:07.477Z,34.80
2019-06-07T03:13:41.554Z,33.85
2019-06-07T03:16:14.752Z,43.55
2019-06-07T03:18:55.313Z,33.18
2019-06-07T03:21:29.532Z,37.00
2019-06-07T03:24:00.712Z,36.45
2019-06-07T03:26:35.108Z,30.68
2019-06-07T03:29:03.604Z,30.55
2019-06-07T03:31:41.511Z,26.80
2019-06-07T03:34:06.004Z,29.40
2019-06-07T03:36:39.197Z,32.08
2019-06-07T03:39:08.579Z,32.55
2019-06-07T03:41:49.979Z,27.73
2019-06-07T03:44:10.934Z,30.57
2019-06-07T03:46:41.903Z,31.55
2019-06-07T03:49:12.283Z,33.42
2019-06-07T03:51:44.952Z,28.50
2019-06-07T03:54:16.415Z,30.37
2019-06-07T03:56:46.720Z,26.50
2019-06-07T03:59:17.369Z,28.15
2019-06-07T04:01:47.874Z,28.40
2019-06-07T04:04:18.205Z,27.95
2019-06-07T04:06:48.551Z,30.90
2019-06-07T04:09:19.370Z,24.67
2019-06-07T04:11:52.003Z,27.40
2019-06-07T04:14:23.411Z,28.38
2019-06-07T04:16:53.950Z,25.02
2019-06-07T04:19:25.327Z,31.25
2019-06-07T04:21:55.666Z,26.35
2019-06-07T04:24:25.968Z,23.12
2019-06-07T04:26:56.288Z,26.75
2019-06-07T04:29:59.764Z,22.48
2019-06-07T04:31:58.677Z,22.17
2019-06-07T04:34:29.925Z,21.12
2019-06-07T04:37:01.766Z,22.85
2019-06-07T04:39:36.456Z,21.33
2019-06-07T04:42:05.743Z,21.27
2019-06-07T04:44:41.079Z,24.18
2019-06-07T04:47:11.917Z,22.40
2019-06-07T04:49:46.039Z,21.93
2019-06-07T04:52:16.246Z,21.70
2019-06-07T04:54:46.555Z,23.10
2019-06-07T04:57:16.935Z,27.62
2019-06-07T05:00:11.917Z,27.70
2019-06-07T05:02:19.571Z,27.40
2019-06-07T05:04:49.918Z,21.33
2019-06-07T05:07:20.542Z,23.22
2019-06-07T05:09:50.855Z,23.25
2019-06-07T05:12:21.588Z,24.35
2019-06-07T05:14:52.208Z,28.55
2019-06-07T05:17:23.363Z,24.00
2019-06-07T05:19:53.589Z,18.87
2019-06-07T05:22:23.902Z,22.60
2019-06-07T05:24:55.177Z,18.23
2019-06-07T05:27:25.452Z,20.48
2019-06-07T05:30:09.623Z,17.30
2019-06-07T05:32:27.906Z,24.07
2019-06-07T05:34:58.306Z,17.55
2019-06-07T05:37:33.444Z,22.27
2019-06-07T05:40:03.919Z,17.23
2019-06-07T05:42:37.251Z,17.60
2019-06-07T05:45:07.517Z,19.67
2019-06-07T05:47:43.734Z,16.40
2019-06-07T05:50:38.022Z,17.80
2019-06-07T05:52:47.274Z,22.60
2019-06-07T05:55:14.771Z,18.17
2019-06-07T05:57:49.121Z,20.23
2019-06-07T06:00:17.100Z,19.30
2019-06-07T06:03:03.986Z,20.43
2019-06-07T06:05:33.178Z,17.82
2019-06-07T06:07:53.243Z,17.90
2019-06-07T06:10:24.237Z,23.10
2019-06-07T06:12:54.718Z,17.87
2019-06-07T06:15:42.329Z,22.40
2019-06-07T06:18:00.951Z,17.67
2019-06-07T06:20:34.782Z,17.60
2019-06-07T06:23:03.229Z,23.32
2019-06-07T06:25:34.353Z,23.67
2019-06-07T06:28:12.109Z,18.73
2019-06-07T06:30:41.219Z,16.95
2019-06-07T06:33:30.595Z,19.65
2019-06-07T06:35:46.057Z,17.27
2019-06-07T06:38:15.710Z,18.70
2019-06-07T06:40:49.646Z,15.83
2019-06-07T06:43:18.783Z,17.50
2019-06-07T06:45:50.675Z,18.98
2019-06-07T06:48:21.064Z,19.98
2019-06-07T06:50:52.889Z,15.80
2019-06-07T06:53:25.294Z,16.65
2019-06-07T06:55:55.632Z,17.17
2019-06-07T06:58:25.933Z,17.45
2019-06-07T07:01:05.885Z,19.90
2019-06-07T07:03:56.674Z,13.68
2019-06-07T07:06:24.641Z,13.88
2019-06-07T07:08:33.102Z,18.77
2019-06-07T07:11:04.438Z,14.78
2019-06-07T07:13:34.805Z,25.75
2019-06-07T07:16:05.239Z,14.20
2019-06-07T07:18:35.512Z,13.83
2019-06-07T07:21:07.533Z,14.28
2019-06-07T07:23:37.952Z,18.73
2019-06-07T07:26:08.571Z,12.00
2019-06-07T07:28:39.020Z,11.63
2019-06-07T07:31:09.952Z,16.05
2019-06-07T07:36:28.697Z,9.48
2019-06-07T07:38:51.728Z,17.15
2019-06-07T07:41:19.899Z,11.85
2019-06-07T07:43:59.372Z,14.18
2019-06-07T07:46:29.496Z,12.33
2019-06-07T07:49:00.303Z,11.68
2019-06-07T07:51:31.722Z,10.82
2019-06-07T07:54:10.846Z,14.87
2019-06-07T07:56:34.170Z,10.60
2019-06-07T07:59:05.008Z,9.40
2019-06-07T08:01:36.588Z,13.15
2019-06-07T08:04:07.227Z,18.32
2019-06-07T08:06:37.554Z,9.55
2019-06-07T08:09:08.868Z,12.68
2019-06-07T08:11:39.181Z,12.88
2019-06-07T08:14:11.036Z,11.38
2019-06-07T08:16:41.486Z,9.53
2019-06-07T08:19:14.144Z,16.05
2019-06-07T08:21:44.541Z,10.28
2019-06-07T08:24:16.319Z,11.05
2019-06-07T08:27:12.311Z,10.68
2019-06-07T08:29:18.790Z,13.85
2019-06-07T08:31:51.667Z,8.85
2019-06-07T08:34:21.491Z,9.23
2019-06-07T08:36:54.297Z,14.85
2019-06-07T08:39:24.251Z,10.15
2019-06-07T08:42:14.351Z,19.48
2019-06-07T08:44:28.828Z,14.83
2019-06-07T08:47:18.408Z,9.88
2019-06-07T08:49:31.130Z,12.43
2019-06-07T08:52:10.522Z,12.85
2019-06-07T08:54:34.558Z,10.30
2019-06-07T08:57:20.542Z,7.75
2019-06-07T08:59:39.581Z,8.83
2019-06-07T09:02:23.247Z,8.13
2019-06-07T09:04:45.631Z,9.48
2019-06-07T09:07:20.042Z,9.33
2019-06-07T09:09:48.248Z,15.25
2019-06-07T09:12:18.929Z,8.10
2019-06-07T09:15:06.781Z,8.78
2019-06-07T09:17:23.619Z,17.12
2019-06-07T09:19:59.039Z,7.60
2019-06-07T09:22:29.162Z,9.70
2019-06-07T09:25:05.936Z,8.33
2019-06-07T09:27:31.896Z,12.18
2019-06-07T09:30:07.625Z,11.10
2019-06-07T09:32:34.335Z,10.93
2019-06-07T09:35:12.430Z,12.58
2019-06-07T09:38:04.497Z,11.53
2019-06-07T09:40:21.626Z,9.85
2019-06-07T09:42:42.553Z,11.12
2019-06-07T09:45:14.329Z,12.73
2019-06-07T09:47:45.486Z,12.78
2019-06-07T09:50:16.317Z,10.75
2019-06-07T09:52:58.094Z,11.53
2019-06-07T09:55:24.195Z,8.85
2019-06-07T09:57:51.430Z,15.13
2019-06-07T10:00:39.893Z,7.97
2019-06-07T10:02:54.241Z,7.05
2019-06-07T10:05:24.799Z,8.08
2019-06-07T10:08:07.654Z,10.13
2019-06-07T10:12:59.631Z,10.30
2019-06-07T10:15:36.974Z,20.70
2019-06-07T10:18:09.186Z,12.05
2019-06-07T10:20:45.886Z,8.55
2019-06-07T10:23:16.339Z,13.32
2019-06-07T10:25:46.657Z,12.23
2019-06-07T10:28:16.983Z,16.60
2019-06-07T10:30:47.658Z,8.85
2019-06-07T10:33:24.810Z,8.30
2019-06-07T10:35:55.427Z,10.65
2019-06-07T10:38:26.830Z,9.20
2019-06-07T10:40:57.364Z,5.90
2019-06-07T10:43:29.156Z,15.85
2019-06-07T10:46:01.458Z,16.70
2019-06-07T10:48:32.166Z,6.83
2019-06-07T10:51:04.332Z,5.17
2019-06-07T10:53:34.568Z,6.08
2019-06-07T10:56:07.104Z,6.58
2019-06-07T10:58:37.443Z,10.60
2019-06-07T11:01:09.361Z,7.55
2019-06-07T11:03:41.561Z,7.55
2019-06-07T11:06:12.277Z,5.78
2019-06-07T11:08:45.598Z,9.45
2019-06-07T11:11:21.487Z,5.40
2019-06-07T11:13:52.635Z,5.30
2019-06-07T11:16:23.683Z,6.40
2019-06-07T11:18:54.763Z,8.80
2019-06-07T11:21:25.105Z,7.45
2019-06-07T11:23:56.963Z,5.75
2019-06-07T11:26:27.700Z,11.22
2019-06-07T11:28:58.448Z,8.33
2019-06-07T11:31:28.861Z,7.00
2019-06-07T11:33:59.629Z,9.18
2019-06-07T11:36:30.020Z,9.30
2019-06-07T11:39:00.363Z,11.03
2019-06-07T11:41:30.708Z,7.72
2019-06-07T11:44:06.788Z,11.05
2019-06-07T11:46:39.454Z,7.33
2019-06-07T11:49:10.897Z,9.45
2019-06-07T11:51:42.051Z,7.80
2019-06-07T11:54:14.235Z,9.38
2019-06-07T11:56:46.572Z,10.35
2019-06-07T11:59:17.451Z,9.55
2019-06-07T12:01:47.974Z,8.20
2019-06-07T12:04:32.519Z,12.13
2019-06-07T12:06:50.273Z,8.53
2019-06-07T12:09:21.124Z,10.25
2019-06-07T12:11:54.168Z,8.40
2019-06-07T12:14:42.187Z,7.60
2019-06-07T12:17:17.536Z,10.95
2019-06-07T12:19:59.072Z,9.20
2019-06-07T12:23:05.832Z,9.33
2019-06-07T12:25:47.182Z,9.30
2019-06-07T12:28:21.046Z,10.28
2019-06-07T12:30:54.984Z,11.88
2019-06-07T12:33:26.685Z,11.75
2019-06-07T12:36:01.282Z,15.63
2019-06-07T12:38:32.458Z,9.73
2019-06-07T12:41:05.120Z,6.78
2019-06-07T12:43:35.721Z,7.15
2019-06-07T12:46:06.064Z,8.33
2019-06-07T12:48:36.793Z,11.03
2019-06-07T12:51:13.063Z,10.48
2019-06-07T12:53:44.024Z,8.60
2019-06-07T12:56:17.777Z,11.08
2019-06-07T12:58:50.801Z,10.18
2019-06-07T13:01:24.879Z,11.18
2019-06-07T13:04:07.415Z,8.85
2019-06-07T13:06:37.807Z,9.30
2019-06-07T13:09:08.081Z,8.78
2019-06-07T13:11:40.454Z,10.65
2019-06-07T13:14:10.809Z,9.63
2019-06-07T13:16:42.624Z,11.18
2019-06-07T13:19:18.039Z,8.50
2019-06-07T13:21:51.017Z,9.33
2019-06-07T13:24:25.148Z,9.73
2019-06-07T13:26:56.765Z,21.68
2019-06-07T13:29:32.181Z,10.08
2019-06-07T13:32:02.374Z,12.85
2019-06-07T13:34:34.087Z,9.10
2019-06-07T13:37:04.500Z,12.65
2019-06-07T13:39:38.117Z,14.18
2019-06-07T13:42:09.673Z,11.20
2019-06-07T13:44:40.014Z,8.80
2019-06-07T13:47:10.632Z,7.05
2019-06-07T13:49:42.613Z,10.60
2019-06-07T13:52:13.493Z,13.20
2019-06-07T13:54:44.178Z,12.82
2019-06-07T13:57:17.936Z,11.18
2019-06-07T13:59:50.390Z,12.35
2019-06-07T14:02:21.236Z,12.70
2019-06-07T14:04:54.167Z,14.70
2019-06-07T14:07:26.885Z,8.33
2019-06-07T14:09:57.966Z,10.72
2019-06-07T14:12:29.587Z,14.18
2019-06-07T14:15:00.110Z,12.43
2019-06-07T14:17:32.547Z,9.10
2019-06-07T14:20:03.380Z,9.88
2019-06-07T14:22:34.792Z,12.63
2019-06-07T14:25:05.656Z,10.05
2019-06-07T14:27:39.767Z,13.95
2019-06-07T14:30:10.965Z,8.73
2019-06-07T14:32:44.748Z,11.50
2019-06-07T14:35:15.106Z,13.10
2019-06-07T14:37:45.465Z,10.43
2019-06-07T14:40:16.628Z,13.43
2019-06-07T14:42:47.084Z,14.85
2019-06-07T14:45:18.330Z,11.88
2019-06-07T14:47:52.788Z,13.20
2019-06-07T14:50:24.182Z,8.48
2019-06-07T14:52:54.598Z,9.78
2019-06-07T14:55:26.960Z,12.82
2019-06-07T14:57:58.966Z,11.18
2019-06-07T15:00:48.030Z,9.28
2019-06-07T15:03:19.187Z,10.20
2019-06-07T15:05:49.868Z,11.28
2019-06-07T15:10:48.726Z,13.93
2019-06-07T15:13:20.718Z,13.13
2019-06-07T15:15:51.003Z,12.95
2019-06-07T15:18:21.335Z,12.28
2019-06-07T15:20:51.815Z,11.05
2019-06-07T15:23:24.212Z,13.15
2019-06-07T15:25:54.559Z,11.33
2019-06-07T15:28:24.946Z,18.55
2019-06-07T15:30:55.742Z,15.53
2019-06-07T15:33:27.886Z,12.35
2019-06-07T15:35:59.235Z,12.90
2019-06-07T15:38:31.127Z,14.68
2019-06-07T15:41:01.859Z,13.85
2019-06-07T15:43:33.167Z,11.50
2019-06-07T15:46:03.531Z,14.05
2019-06-07T15:48:38.136Z,11.85
2019-06-07T15:51:08.676Z,13.58
2019-06-07T15:53:44.629Z,11.78
2019-06-07T15:56:15.550Z,17.62
2019-06-07T15:58:46.840Z,12.28
2019-06-07T16:01:18.616Z,16.95
2019-06-07T16:03:49.499Z,13.65
2019-06-07T16:06:19.963Z,13.62
2019-06-07T16:08:53.412Z,12.25
2019-06-07T16:11:26.132Z,15.45
2019-06-07T16:13:56.463Z,13.22
2019-06-07T16:16:31.229Z,15.23
2019-06-07T16:19:01.602Z,11.83
2019-06-07T16:21:33.191Z,13.28
2019-06-07T16:24:03.649Z,15.30
2019-06-07T16:26:38.131Z,13.65
2019-06-07T16:29:09.254Z,11.48
2019-06-07T16:31:40.894Z,16.80
2019-06-07T16:34:11.358Z,16.27
2019-06-07T16:36:42.323Z,14.43
2019-06-07T16:39:16.461Z,14.20
2019-06-07T16:41:46.744Z,15.50
2019-06-07T16:44:18.178Z,16.37
2019-06-07T16:46:49.096Z,17.00
2019-06-07T16:49:19.493Z,14.80
2019-06-07T16:51:51.900Z,15.00
2019-06-07T16:54:26.512Z,17.82
2019-06-07T16:56:56.916Z,17.12
2019-06-07T16:59:27.325Z,17.00
2019-06-07T17:01:57.642Z,16.42
2019-06-07T17:04:29.220Z,15.95
2019-06-07T17:06:59.519Z,19.12
2019-06-07T17:09:30.486Z,16.77
2019-06-07T17:12:00.836Z,18.10
2019-06-07T17:14:31.171Z,13.62
2019-06-07T17:17:04.002Z,17.52
2019-06-07T17:19:34.435Z,22.27
2019-06-07T17:22:05.033Z,15.85
2019-06-07T17:24:36.062Z,20.05
2019-06-07T17:27:06.758Z,15.50
2019-06-07T17:29:37.196Z,19.55
2019-06-07T17:32:08.998Z,18.37
2019-06-07T17:34:39.901Z,17.10
2019-06-07T17:37:10.659Z,20.12
2019-06-07T17:39:43.105Z,17.87
2019-06-07T17:42:15.883Z,23.57
2019-06-07T17:44:47.120Z,19.48
2019-06-07T17:47:17.475Z,22.02
2019-06-07T17:49:47.945Z,20.02
2019-06-07T17:52:52.175Z,21.20
2019-06-07T17:55:23.830Z,17.95
2019-06-07T17:57:54.185Z,18.65
2019-06-07T18:00:28.808Z,23.57
2019-06-07T18:02:58.786Z,20.55
2019-06-07T18:05:29.078Z,19.10
2019-06-07T18:07:59.962Z,19.95
2019-06-07T18:10:40.119Z,18.65
2019-06-07T18:13:10.867Z,21.00
2019-06-07T18:15:44.350Z,17.15
2019-06-07T18:18:15.256Z,17.25
2019-06-07T18:20:47.210Z,23.02
2019-06-07T18:23:17.856Z,18.95
2019-06-07T18:25:48.456Z,22.90
2019-06-07T18:28:18.963Z,25.65
2019-06-07T18:30:50.764Z,20.23
2019-06-07T18:33:25.074Z,21.90
2019-06-07T18:36:05.688Z,22.22
2019-06-07T18:38:36.466Z,18.82
2019-06-07T18:41:06.789Z,19.12
2019-06-07T18:43:37.101Z,24.27
2019-06-07T18:46:07.658Z,22.62
2019-06-07T18:48:38.031Z,22.42
2019-06-07T18:51:08.729Z,21.95
2019-06-07T18:53:40.347Z,21.52
2019-06-07T18:56:10.734Z,24.85
2019-06-07T18:58:41.059Z,22.75
2019-06-07T19:01:11.393Z,24.72
2019-06-07T19:03:41.713Z,159.40
2019-06-07T19:06:12.247Z,34.25
2019-06-07T19:08:42.564Z,20.27
2019-06-07T19:11:13.115Z,26.02
2019-06-07T19:13:43.472Z,21.10
2019-06-07T19:16:15.074Z,23.47
2019-06-07T19:18:45.437Z,22.67
2019-06-07T19:21:15.853Z,24.50
2019-06-07T19:23:46.386Z,26.57
2019-06-07T19:26:17.683Z,24.60
2019-06-07T19:28:49.139Z,22.52
2019-06-07T19:31:19.433Z,24.65
2019-06-07T19:33:50.927Z,25.65
2019-06-07T19:36:21.895Z,26.57
2019-06-07T19:38:54.261Z,24.20
2019-06-07T19:41:24.444Z,25.45
2019-06-07T19:43:56.172Z,26.80
2019-06-07T19:46:28.606Z,26.27
2019-06-07T19:48:59.076Z,29.95
2019-06-07T19:51:29.384Z,25.17
2019-06-07T19:54:01.779Z,28.30
2019-06-07T19:56:32.706Z,27.30
2019-06-07T19:59:04.308Z,25.97
2019-06-07T20:01:35.107Z,34.73
2019-06-07T20:04:05.466Z,30.20
2019-06-07T20:06:35.820Z,28.35
2019-06-07T20:09:07.424Z,25.48
2019-06-07T20:11:38.193Z,28.98
2019-06-07T20:14:08.500Z,28.87
2019-06-07T20:16:38.935Z,27.90
2019-06-07T20:19:09.924Z,27.50
2019-06-07T20:21:40.225Z,29.45
2019-06-07T20:24:26.356Z,29.60
2019-06-07T20:26:43.874Z,28.23
2019-06-07T20:29:25.808Z,25.80
2019-06-07T20:31:47.026Z,31.00
2019-06-07T20:34:17.406Z,31.27
2019-06-07T20:36:48.095Z,33.58
2019-06-07T20:39:18.856Z,30.92
2019-06-07T20:41:53.814Z,32.70
2019-06-07T20:44:24.504Z,32.20
2019-06-07T20:46:54.869Z,33.53
2019-06-07T20:49:31.789Z,36.38
2019-06-07T20:52:04.852Z,30.82
2019-06-07T20:54:35.733Z,28.42
2019-06-07T20:57:06.772Z,30.43
2019-06-07T20:59:37.348Z,31.10
2019-06-07T21:02:09.563Z,28.83
2019-06-07T21:07:10.147Z,31.42
2019-06-07T21:09:43.758Z,32.23
2019-06-07T21:12:14.040Z,30.43
2019-06-07T21:14:45.983Z,33.33
2019-06-07T21:17:16.305Z,31.30
2019-06-07T21:19:46.611Z,32.78
2019-06-07T21:22:17.431Z,32.53
2019-06-07T21:24:48.146Z,34.25
2019-06-07T21:27:18.473Z,34.10
2019-06-07T21:29:53.895Z,33.40
2019-06-07T21:32:26.016Z,38.45
2019-06-07T21:34:56.493Z,36.42
2019-06-07T21:37:27.103Z,35.28
2019-06-07T21:39:57.660Z,37.45
2019-06-07T21:42:28.320Z,34.33
2019-06-07T21:45:00.587Z,32.53
2019-06-07T21:47:31.964Z,37.45
2019-06-07T21:50:02.628Z,37.55
2019-06-07T21:52:33.139Z,36.68
2019-06-07T21:55:04.618Z,41.60
2019-06-07T21:57:35.431Z,36.55
2019-06-07T22:00:11.713Z,38.60
2019-06-07T22:02:42.158Z,40.12
2019-06-07T22:05:13.882Z,37.70
2019-06-07T22:07:44.872Z,48.10
2019-06-07T22:10:16.230Z,34.48
2019-06-07T22:12:46.546Z,39.90
2019-06-07T22:15:33.160Z,43.55
2019-06-07T22:17:50.540Z,36.93
2019-06-07T22:20:21.515Z,43.10
2019-06-07T22:22:51.875Z,46.33
2019-06-07T22:25:22.822Z,44.80
2019-06-07T22:27:56.234Z,43.13
2019-06-07T22:30:28.025Z,44.50
2019-06-07T22:32:58.351Z,42.73
2019-06-07T22:35:31.165Z,46.20
2019-06-07T22:38:01.469Z,43.08
2019-06-07T22:40:33.314Z,44.70
2019-06-07T22:43:07.508Z,46.45
2019-06-07T22:45:40.671Z,47.17
2019-06-07T22:48:11.348Z,45.73
2019-06-07T22:50:42.030Z,47.40
2019-06-07T22:53:14.069Z,48.48
2019-06-07T22:55:49.763Z,49.00
2019-06-07T22:58:23.129Z,47.58
2019-06-07T23:00:53.430Z,46.58
2019-06-07T23:03:29.099Z,57.05
2019-06-07T23:05:59.461Z,47.25
2019-06-07T23:08:31.871Z,44.45
2019-06-07T23:11:07.339Z,52.65
2019-06-07T23:13:38.042Z,46.95
2019-06-07T23:16:11.410Z,51.05
2019-06-07T23:18:43.034Z,49.33
2019-06-07T23:21:13.849Z,50.05
2019-06-07T23:23:47.072Z,44.73
2019-06-07T23:26:20.554Z,42.95
2019-06-07T23:28:55.608Z,44.27
2019-06-07T23:31:27.267Z,44.80
2019-06-07T23:34:00.193Z,51.33
2019-06-07T23:36:30.801Z,44.85
2019-06-07T23:39:01.335Z,47.23
2019-06-07T23:41:31.674Z,44.55
2019-06-07T23:44:02.349Z,46.68
2019-06-07T23:46:32.688Z,47.70
2019-06-07T23:49:03.096Z,43.98
2019-06-07T23:51:33.591Z,46.45
2019-06-07T23:54:03.972Z,49.13
2019-06-07T23:56:34.340Z,50.55
2019-06-07T23:59:05.185Z,50.00
